createdAt,value
2018-06-12T00:02:05.664Z,90.74
2018-06-12T00:04:34.063Z,88.87
2018-06-12T00:07:02.665Z,87.75
2018-06-12T00:09:31.123Z,86.87
2018-06-12T00:11:59.554Z,87.78
2018-06-12T00:14:27.991Z,87.32
2018-06-12T00:16:56.394Z,89.72
2018-06-12T00:19:25.231Z,91.39
2018-06-12T00:21:53.673Z,91.97
2018-06-12T00:24:22.090Z,92.49
2018-06-12T00:26:50.511Z,93.00
2018-06-12T00:29:18.924Z,92.72
2018-06-12T00:31:47.392Z,93.38
2018-06-12T00:34:15.812Z,92.16
2018-06-12T00:36:44.252Z,93.98
2018-06-12T00:39:12.670Z,92.60
2018-06-12T00:41:41.071Z,92.57
2018-06-12T00:44:09.756Z,92.16
2018-06-12T00:46:38.159Z,92.91
2018-06-12T00:49:10.087Z,92.13
2018-06-12T00:51:38.498Z,92.58
2018-06-12T00:54:06.927Z,92.26
2018-06-12T00:56:46.489Z,93.34
2018-06-12T00:59:14.892Z,93.55
2018-06-12T01:01:43.371Z,92.65
2018-06-12T01:04:11.801Z,90.33
2018-06-12T01:06:40.214Z,89.89
2018-06-12T01:09:08.694Z,89.58
2018-06-12T01:11:37.099Z,91.34
2018-06-12T01:14:05.675Z,91.74
2018-06-12T01:16:34.111Z,89.74
2018-06-12T01:19:02.503Z,90.69
2018-06-12T01:21:30.955Z,92.28
2018-06-12T01:23:59.368Z,92.46
2018-06-12T01:26:28.068Z,91.35
2018-06-12T01:28:56.468Z,92.12
2018-06-12T01:31:24.899Z,91.36
2018-06-12T01:33:53.362Z,89.61
2018-06-12T01:36:21.790Z,87.62
2018-06-12T01:38:50.330Z,87.91
2018-06-12T01:41:18.715Z,88.04
2018-06-12T01:43:47.251Z,88.79
2018-06-12T01:46:15.670Z,89.66
2018-06-12T01:48:44.070Z,92.04
2018-06-12T01:51:12.494Z,93.11
2018-06-12T01:53:40.944Z,92.28
2018-06-12T01:56:09.443Z,93.09
2018-06-12T01:58:37.863Z,92.59
2018-06-12T02:01:06.283Z,87.62
2018-06-12T02:03:34.763Z,88.56
2018-06-12T02:06:03.175Z,90.13
2018-06-12T02:08:31.812Z,90.66
2018-06-12T02:11:00.232Z,91.53
2018-06-12T02:13:28.668Z,92.58
2018-06-12T02:15:57.112Z,93.50
2018-06-12T02:18:25.518Z,90.81
2018-06-12T02:20:54.183Z,91.08
2018-06-12T02:23:22.591Z,89.14
2018-06-12T02:25:51.003Z,88.30
2018-06-12T02:28:19.445Z,87.15
2018-06-12T02:30:47.867Z,88.42
2018-06-12T02:33:16.431Z,89.86
2018-06-12T02:35:44.864Z,89.84
2018-06-12T02:38:13.319Z,89.73
2018-06-12T02:40:41.783Z,87.39
2018-06-12T02:43:10.214Z,90.89
2018-06-12T02:45:38.779Z,91.55
2018-06-12T02:48:07.199Z,89.70
2018-06-12T02:50:35.632Z,90.71
2018-06-12T02:53:04.076Z,90.16
2018-06-12T02:55:32.518Z,88.52
2018-06-12T02:58:00.943Z,89.49
2018-06-12T03:00:29.371Z,88.20
2018-06-12T03:02:57.786Z,88.12
2018-06-12T03:05:26.232Z,88.73
2018-06-12T03:07:54.647Z,89.08
2018-06-12T03:10:23.208Z,88.94
2018-06-12T03:12:51.609Z,88.95
2018-06-12T03:15:20.033Z,89.32
2018-06-12T03:17:48.512Z,89.01
2018-06-12T03:20:16.989Z,88.75
2018-06-12T03:22:45.468Z,88.28
2018-06-12T03:25:13.876Z,88.17
2018-06-12T03:27:42.307Z,87.81
2018-06-12T03:30:10.752Z,89.51
2018-06-12T03:32:39.172Z,89.66
2018-06-12T03:35:07.827Z,89.28
2018-06-12T03:37:36.279Z,88.39
2018-06-12T03:40:04.763Z,88.17
2018-06-12T03:42:33.212Z,89.44
2018-06-12T03:45:01.640Z,86.98
2018-06-12T03:47:30.199Z,86.17
2018-06-12T03:49:58.599Z,85.45
2018-06-12T03:52:27.023Z,86.87
2018-06-12T03:54:55.455Z,84.71
2018-06-12T03:57:23.894Z,86.46
2018-06-12T03:59:52.339Z,88.29
2018-06-12T04:02:20.755Z,87.58
2018-06-12T04:04:49.186Z,86.60
2018-06-12T04:07:17.639Z,85.98
2018-06-12T04:09:46.043Z,86.41
2018-06-12T04:12:14.495Z,86.17
2018-06-12T04:14:43.026Z,85.98
2018-06-12T04:17:11.436Z,84.15
2018-06-12T04:19:39.883Z,84.99
2018-06-12T04:22:08.331Z,84.91
2018-06-12T04:24:36.743Z,85.44
2018-06-12T04:27:05.368Z,82.62
2018-06-12T04:29:33.783Z,84.00
2018-06-12T04:32:02.231Z,85.87
2018-06-12T04:34:30.674Z,86.44
2018-06-12T04:36:59.107Z,84.91
2018-06-12T04:39:27.563Z,84.22
2018-06-12T04:41:55.999Z,85.65
2018-06-12T04:44:24.427Z,83.52
2018-06-12T04:46:52.879Z,86.43
2018-06-12T04:49:21.303Z,87.90
2018-06-12T04:51:50.422Z,83.33
2018-06-12T04:54:18.855Z,85.65
2018-06-12T04:56:47.327Z,86.88
2018-06-12T04:59:15.763Z,86.02
2018-06-12T05:01:44.175Z,84.41
2018-06-12T05:04:12.784Z,83.43
2018-06-12T05:06:41.244Z,84.32
2018-06-12T05:09:09.643Z,85.68
2018-06-12T05:11:38.083Z,85.81
2018-06-12T05:14:06.487Z,87.00
2018-06-12T05:16:35.010Z,84.29
2018-06-12T05:19:03.490Z,84.50
2018-06-12T05:21:31.923Z,82.86
2018-06-12T05:24:00.367Z,83.10
2018-06-12T05:26:28.787Z,82.53
2018-06-12T05:28:57.497Z,83.03
2018-06-12T05:31:25.919Z,83.86
2018-06-12T05:33:54.327Z,81.99
2018-06-12T05:36:22.767Z,83.25
2018-06-12T05:38:51.227Z,81.43
2018-06-12T05:41:19.847Z,85.29
2018-06-12T05:43:48.263Z,83.94
2018-06-12T05:46:16.699Z,86.94
2018-06-12T05:48:45.134Z,89.65
2018-06-12T05:51:13.576Z,85.32
2018-06-12T05:53:42.055Z,86.86
2018-06-12T05:56:10.516Z,90.01
2018-06-12T05:58:38.919Z,88.96
2018-06-12T06:01:07.395Z,90.17
2018-06-12T06:03:35.887Z,89.24
2018-06-12T06:06:04.412Z,88.07
2018-06-12T06:08:32.872Z,86.97
2018-06-12T06:11:01.328Z,87.68
2018-06-12T06:13:29.783Z,89.23
2018-06-12T06:15:58.231Z,89.76
2018-06-12T06:18:26.684Z,91.14
2018-06-12T06:20:55.084Z,88.59
2018-06-12T06:23:23.559Z,93.59
2018-06-12T06:25:51.987Z,91.79
2018-06-12T06:28:20.432Z,92.58
2018-06-12T06:30:48.924Z,91.56
2018-06-12T06:33:17.469Z,89.89
2018-06-12T06:35:45.891Z,91.11
2018-06-12T06:38:14.342Z,90.60
2018-06-12T06:40:42.762Z,90.78
2018-06-12T06:43:11.263Z,92.53
2018-06-12T06:45:39.723Z,90.56
2018-06-12T06:48:08.132Z,89.99
2018-06-12T06:50:36.543Z,90.91
2018-06-12T06:53:05.143Z,93.17
2018-06-12T06:55:33.571Z,90.71
2018-06-12T06:58:02.079Z,91.17
2018-06-12T07:00:30.496Z,92.22
2018-06-12T07:02:58.935Z,93.50
2018-06-12T07:05:27.580Z,91.66
2018-06-12T07:07:56.007Z,92.49
2018-06-12T07:10:24.442Z,92.41
2018-06-12T07:12:52.886Z,92.58
2018-06-12T07:15:21.300Z,92.47
2018-06-12T07:17:49.859Z,93.39
2018-06-12T07:20:59.971Z,92.79
2018-06-12T07:23:28.423Z,94.34
2018-06-12T07:25:56.845Z,92.11
2018-06-12T07:28:25.699Z,94.09
2018-06-12T07:30:54.166Z,92.15
2018-06-12T07:33:22.574Z,92.06
2018-06-12T07:35:51.031Z,91.81
2018-06-12T07:38:19.459Z,93.33
2018-06-12T07:40:48.023Z,91.54
2018-06-12T07:43:16.479Z,90.95
2018-06-12T07:45:44.899Z,90.33
2018-06-12T07:48:13.333Z,90.69
2018-06-12T07:50:41.784Z,90.54
2018-06-12T07:53:10.655Z,89.34
2018-06-12T07:55:39.079Z,88.54
2018-06-12T07:58:07.547Z,88.39
2018-06-12T08:00:36.970Z,89.35
2018-06-12T08:03:05.404Z,90.71
2018-06-12T08:05:34.047Z,93.28
2018-06-12T08:08:02.455Z,92.07
2018-06-12T08:10:30.891Z,93.36
2018-06-12T08:12:59.479Z,94.86
2018-06-12T08:15:27.832Z,95.49
2018-06-12T08:17:56.303Z,97.33
2018-06-12T08:20:24.720Z,96.21
2018-06-12T08:22:53.143Z,95.74
2018-06-12T08:25:21.610Z,95.80
2018-06-12T08:27:50.036Z,95.60
2018-06-12T08:30:18.694Z,94.78
2018-06-12T08:32:47.023Z,95.25
2018-06-12T08:35:15.459Z,95.93
2018-06-12T08:37:43.923Z,95.60
2018-06-12T08:40:12.392Z,93.85
2018-06-12T08:42:41.047Z,95.31
2018-06-12T08:45:09.595Z,93.49
2018-06-12T08:47:38.039Z,94.14
2018-06-12T08:50:06.520Z,93.35
2018-06-12T08:52:34.931Z,94.21
2018-06-12T08:55:03.428Z,96.34
2018-06-12T08:57:31.967Z,95.52
2018-06-12T09:00:00.451Z,93.15
2018-06-12T09:02:28.998Z,95.40
2018-06-12T09:04:57.463Z,97.75
2018-06-12T09:07:26.336Z,98.00
2018-06-12T09:09:54.751Z,96.20
2018-06-12T09:12:23.183Z,94.51
2018-06-12T09:14:51.600Z,95.54
2018-06-12T09:17:20.078Z,95.88
2018-06-12T09:19:48.543Z,94.29
2018-06-12T09:22:16.999Z,95.70
2018-06-12T09:24:45.444Z,94.28
2018-06-12T09:27:13.901Z,95.47
2018-06-12T09:29:42.359Z,95.16
2018-06-12T09:32:10.828Z,94.89
2018-06-12T09:34:39.251Z,95.93
2018-06-12T09:37:07.687Z,95.65
2018-06-12T09:39:36.105Z,96.02
2018-06-12T09:42:04.876Z,97.50
2018-06-12T09:44:33.287Z,98.28
2018-06-12T09:47:01.740Z,97.92
2018-06-12T09:49:30.471Z,98.58
2018-06-12T09:51:58.919Z,96.20
2018-06-12T09:54:27.523Z,95.34
2018-06-12T09:56:55.955Z,96.51
2018-06-12T09:59:24.433Z,96.06
2018-06-12T10:01:52.871Z,95.33
2018-06-12T10:04:21.295Z,93.52
2018-06-12T10:06:49.786Z,94.66
2018-06-12T10:09:18.212Z,95.91
2018-06-12T10:11:46.657Z,94.57
2018-06-12T10:14:15.111Z,92.15
2018-06-12T10:16:43.559Z,94.82
2018-06-12T10:19:11.996Z,91.29
2018-06-12T10:21:40.419Z,92.10
2018-06-12T10:24:08.848Z,94.56
2018-06-12T10:26:37.280Z,95.22
2018-06-12T10:29:05.880Z,96.16
2018-06-12T10:31:34.499Z,94.34
2018-06-12T10:34:02.939Z,94.78
2018-06-12T10:36:31.390Z,95.87
2018-06-12T10:38:59.843Z,95.36
2018-06-12T10:41:28.283Z,92.14
2018-06-12T10:43:56.888Z,90.91
2018-06-12T10:46:25.320Z,92.36
2018-06-12T10:48:53.779Z,92.08
2018-06-12T10:51:22.219Z,90.61
2018-06-12T10:53:50.646Z,93.20
2018-06-12T10:56:19.187Z,93.13
2018-06-12T10:58:47.594Z,91.82
2018-06-12T11:01:16.047Z,90.84
2018-06-12T11:03:44.499Z,91.15
2018-06-12T11:06:12.919Z,90.69
2018-06-12T11:08:41.465Z,90.92
2018-06-12T11:11:09.888Z,89.24
2018-06-12T11:13:38.304Z,88.35
2018-06-12T11:16:06.807Z,87.71
2018-06-12T11:18:35.239Z,89.80
2018-06-12T11:21:03.777Z,87.62
2018-06-12T11:23:32.203Z,85.28
2018-06-12T11:26:00.634Z,86.98
2018-06-12T11:28:29.082Z,85.96
2018-06-12T11:30:57.498Z,86.09
2018-06-12T11:33:26.179Z,87.58
2018-06-12T11:35:54.599Z,86.38
2018-06-12T11:38:23.009Z,84.43
2018-06-12T11:40:51.439Z,86.73
2018-06-12T11:43:19.867Z,87.38
2018-06-12T11:45:48.307Z,86.87
2018-06-12T11:48:16.704Z,86.68
2018-06-12T11:50:45.152Z,83.39
2018-06-12T11:53:13.588Z,84.27
2018-06-12T11:55:42.052Z,83.62
2018-06-12T11:58:10.496Z,82.68
2018-06-12T12:00:38.959Z,83.50
2018-06-12T12:03:07.377Z,83.38
2018-06-12T12:05:35.819Z,83.50
2018-06-12T12:08:04.256Z,82.74
2018-06-12T12:10:32.744Z,83.57
2018-06-12T12:13:01.159Z,83.13
2018-06-12T12:15:29.596Z,83.24
2018-06-12T12:17:58.064Z,83.20
2018-06-12T12:20:26.472Z,82.25
2018-06-12T12:22:54.891Z,81.66
2018-06-12T12:25:23.344Z,82.45
2018-06-12T12:27:51.802Z,79.44
2018-06-12T12:30:20.248Z,80.50
2018-06-12T12:32:48.735Z,81.35
2018-06-12T12:35:17.179Z,79.93
2018-06-12T12:37:45.578Z,79.65
2018-06-12T12:40:14.023Z,78.54
2018-06-12T12:42:42.487Z,79.08
2018-06-12T12:45:10.919Z,78.18
2018-06-12T12:47:39.371Z,79.86
2018-06-12T12:50:07.810Z,79.07
2018-06-12T12:52:36.236Z,78.67
2018-06-12T12:55:04.707Z,77.51
2018-06-12T12:57:33.147Z,75.78
2018-06-12T13:00:01.588Z,75.28
2018-06-12T13:02:30.036Z,75.74
2018-06-12T13:04:58.515Z,77.18
2018-06-12T13:07:26.960Z,78.42
2018-06-12T13:09:55.419Z,76.41
2018-06-12T13:12:23.848Z,76.17
2018-06-12T13:14:52.283Z,76.63
2018-06-12T13:17:20.739Z,73.87
2018-06-12T13:19:49.151Z,76.28
2018-06-12T13:22:17.569Z,77.03
2018-06-12T13:24:46.015Z,75.24
2018-06-12T13:27:14.435Z,76.61
2018-06-12T13:29:42.846Z,73.94
2018-06-12T13:32:11.295Z,76.42
2018-06-12T13:34:39.711Z,74.08
2018-06-12T13:37:08.171Z,73.51
2018-06-12T13:39:36.603Z,75.34
2018-06-12T13:42:05.011Z,73.13
2018-06-12T13:44:33.475Z,73.59
2018-06-12T13:47:01.975Z,73.44
2018-06-12T13:49:30.527Z,73.50
2018-06-12T13:51:58.987Z,72.23
2018-06-12T13:54:27.445Z,72.95
2018-06-12T13:56:55.944Z,73.52
2018-06-12T13:59:24.377Z,75.00
2018-06-12T14:01:52.859Z,75.75
2018-06-12T14:04:21.303Z,76.41
2018-06-12T14:06:49.735Z,76.22
2018-06-12T14:09:18.167Z,74.87
2018-06-12T14:11:46.592Z,74.64
2018-06-12T14:14:15.038Z,74.57
2018-06-12T14:16:43.481Z,75.22
2018-06-12T14:19:11.948Z,74.92
2018-06-12T14:21:40.380Z,77.33
2018-06-12T14:24:08.795Z,74.33
2018-06-12T14:26:37.243Z,75.22
2018-06-12T14:29:05.668Z,73.62
2018-06-12T14:31:34.146Z,71.67
2018-06-12T14:34:02.603Z,72.43
2018-06-12T14:36:31.007Z,72.86
2018-06-12T14:38:59.440Z,72.46
2018-06-12T14:41:27.875Z,70.47
2018-06-12T14:43:56.471Z,71.96
2018-06-12T14:46:24.903Z,71.08
2018-06-12T14:48:53.458Z,72.38
2018-06-12T14:51:21.940Z,72.71
2018-06-12T14:53:50.355Z,72.45
2018-06-12T14:56:18.947Z,71.91
2018-06-12T14:58:47.411Z,74.04
2018-06-12T15:01:15.840Z,73.53
2018-06-12T15:03:44.329Z,74.92
2018-06-12T15:06:12.752Z,74.22
2018-06-12T15:08:41.551Z,75.48
2018-06-12T15:11:09.991Z,75.81
2018-06-12T15:13:38.399Z,74.74
2018-06-12T15:16:06.883Z,76.26
2018-06-12T15:18:35.304Z,76.19
2018-06-12T15:21:03.875Z,76.15
2018-06-12T15:23:32.303Z,75.36
2018-06-12T15:26:00.715Z,75.29
2018-06-12T15:28:29.166Z,73.54
2018-06-12T15:30:57.591Z,74.87
2018-06-12T15:33:26.110Z,75.83
2018-06-12T15:35:54.507Z,75.12
2018-06-12T15:38:22.935Z,74.36
2018-06-12T15:40:51.375Z,74.96
2018-06-12T15:43:19.800Z,70.21
2018-06-12T15:45:48.587Z,70.48
2018-06-12T15:48:17.024Z,70.24
2018-06-12T15:50:45.433Z,69.39
2018-06-12T15:53:13.907Z,69.50
2018-06-12T15:55:42.335Z,69.10
2018-06-12T15:58:10.803Z,69.67
2018-06-12T16:00:39.253Z,69.98
2018-06-12T16:03:07.751Z,68.98
2018-06-12T16:05:36.208Z,68.15
2018-06-12T16:08:04.724Z,68.50
2018-06-12T16:10:33.201Z,67.93
2018-06-12T16:13:01.683Z,66.64
2018-06-12T16:15:30.165Z,67.72
2018-06-12T16:17:58.611Z,65.15
2018-06-12T16:20:27.077Z,66.20
2018-06-12T16:22:55.491Z,66.25
2018-06-12T16:25:24.075Z,66.54
2018-06-12T16:27:52.527Z,66.01
2018-06-12T16:30:20.966Z,66.28
2018-06-12T16:32:49.412Z,66.38
2018-06-12T16:35:17.820Z,66.23
2018-06-12T16:37:46.427Z,65.18
2018-06-12T16:40:14.854Z,67.17
2018-06-12T16:42:43.319Z,67.18
2018-06-12T16:45:11.804Z,68.64
2018-06-12T16:47:40.236Z,67.22
2018-06-12T16:50:08.805Z,68.75
2018-06-12T16:52:37.263Z,65.62
2018-06-12T16:55:05.683Z,67.28
2018-06-12T16:57:34.138Z,67.50
2018-06-12T17:00:02.561Z,66.78
2018-06-12T17:02:31.271Z,68.71
2018-06-12T17:04:59.758Z,66.78
2018-06-12T17:07:28.261Z,68.76
2018-06-12T17:09:56.719Z,70.10
2018-06-12T17:12:25.187Z,68.31
2018-06-12T17:14:53.653Z,68.37
2018-06-12T17:17:22.136Z,68.72
2018-06-12T17:19:50.599Z,68.68
2018-06-12T17:22:19.107Z,69.37
2018-06-12T17:24:47.587Z,69.07
2018-06-12T17:27:16.235Z,70.19
2018-06-12T17:29:44.696Z,69.56
2018-06-12T17:32:13.135Z,69.07
2018-06-12T17:34:41.592Z,69.36
2018-06-12T17:37:10.032Z,69.88
2018-06-12T17:39:38.844Z,70.80
2018-06-12T17:42:07.283Z,71.52
2018-06-12T17:44:35.743Z,71.30
2018-06-12T17:47:04.208Z,71.36
2018-06-12T17:49:32.699Z,71.73
2018-06-12T17:52:01.492Z,71.88
2018-06-12T17:54:29.907Z,71.90
2018-06-12T17:56:58.396Z,71.70
2018-06-12T17:59:26.878Z,68.89
2018-06-12T18:01:55.355Z,70.94
2018-06-12T18:04:24.175Z,71.96
2018-06-12T18:06:52.618Z,71.29
2018-06-12T18:09:21.079Z,71.22
2018-06-12T18:11:49.591Z,72.10
2018-06-12T18:14:18.036Z,73.16
2018-06-12T18:16:46.773Z,71.20
2018-06-12T18:19:15.221Z,72.27
2018-06-12T18:21:43.669Z,74.00
2018-06-12T18:24:12.123Z,73.11
2018-06-12T18:26:40.681Z,71.94
2018-06-12T18:29:09.445Z,71.38
2018-06-12T18:31:38.648Z,72.83
2018-06-12T18:34:07.119Z,73.42
2018-06-12T18:36:35.585Z,74.16
2018-06-12T18:39:04.588Z,74.92
2018-06-12T18:41:33.071Z,75.93
2018-06-12T18:44:01.592Z,76.62
2018-06-12T18:46:30.057Z,75.65
2018-06-12T18:48:58.511Z,75.74
2018-06-12T18:51:26.945Z,74.64
2018-06-12T18:53:55.374Z,74.78
2018-06-12T18:56:23.914Z,76.02
2018-06-12T18:58:52.379Z,76.40
2018-06-12T19:01:20.997Z,75.79
2018-06-12T19:03:49.522Z,76.49
2018-06-12T19:06:17.995Z,77.04
2018-06-12T19:08:46.555Z,76.75
2018-06-12T19:11:15.547Z,77.57
2018-06-12T19:13:44.034Z,77.84
2018-06-12T19:16:12.556Z,78.21
2018-06-12T19:18:41.024Z,75.99
2018-06-12T19:21:09.591Z,77.11
2018-06-12T19:23:38.113Z,76.09
2018-06-12T19:26:06.539Z,74.75
2018-06-12T19:28:35.052Z,75.51
2018-06-12T19:31:03.495Z,75.53
2018-06-12T19:33:32.378Z,76.03
2018-06-12T19:36:01.173Z,75.57
2018-06-12T19:38:30.005Z,75.39
2018-06-12T19:40:58.528Z,77.26
2018-06-12T19:43:27.006Z,77.73
2018-06-12T19:45:55.618Z,77.91
2018-06-12T19:48:24.086Z,78.45
2018-06-12T19:50:52.564Z,78.60
2018-06-12T19:53:21.813Z,79.24
2018-06-12T19:55:50.296Z,78.65
2018-06-12T19:58:19.084Z,79.36
2018-06-12T20:00:47.660Z,79.10
2018-06-12T20:03:16.164Z,80.14
2018-06-12T20:05:44.668Z,78.93
2018-06-12T20:08:13.158Z,77.76
2018-06-12T20:10:41.712Z,78.55
2018-06-12T20:13:10.244Z,78.59
2018-06-12T20:15:38.706Z,78.15
2018-06-12T20:18:07.300Z,78.09
2018-06-12T20:20:35.795Z,79.17
2018-06-12T20:23:04.272Z,78.11
2018-06-12T20:25:32.722Z,77.77
2018-06-12T20:28:01.148Z,77.53
2018-06-12T20:30:29.706Z,78.07
2018-06-12T20:32:59.000Z,78.29
2018-06-12T20:35:27.648Z,77.47
2018-06-12T20:37:56.143Z,79.60
2018-06-12T20:40:24.586Z,76.74
2018-06-12T20:42:53.128Z,78.11
2018-06-12T20:45:21.710Z,77.88
2018-06-12T20:47:50.378Z,77.69
2018-06-12T20:50:18.815Z,77.72
2018-06-12T20:52:47.276Z,77.36
2018-06-12T20:55:15.777Z,77.57
2018-06-12T20:57:44.236Z,78.30
2018-06-12T21:00:12.738Z,78.16
2018-06-12T21:02:41.247Z,77.83
2018-06-12T21:05:09.687Z,78.42
2018-06-12T21:07:38.176Z,77.51
2018-06-12T21:10:06.627Z,78.26
2018-06-12T21:12:35.246Z,76.95
2018-06-12T21:15:03.697Z,77.36
2018-06-12T21:17:32.143Z,77.06
2018-06-12T21:20:00.585Z,76.91
2018-06-12T21:22:28.992Z,77.52
2018-06-12T21:24:57.455Z,77.79
2018-06-12T21:27:26.008Z,78.45
2018-06-12T21:29:54.459Z,77.91
2018-06-12T21:32:22.932Z,78.03
2018-06-12T21:34:51.370Z,77.40
2018-06-12T21:37:19.950Z,76.84
2018-06-12T21:39:48.383Z,77.23
2018-06-12T21:42:16.810Z,78.49
2018-06-12T21:44:45.283Z,77.48
2018-06-12T21:47:13.711Z,76.99
2018-06-12T21:49:42.218Z,75.87
2018-06-12T21:52:10.656Z,76.53
2018-06-12T21:54:39.121Z,77.70
2018-06-12T21:57:07.562Z,75.99
2018-06-12T21:59:36.035Z,75.71
2018-06-12T22:02:04.536Z,75.21
2018-06-12T22:04:33.080Z,74.74
2018-06-12T22:07:01.592Z,74.99
2018-06-12T22:09:30.065Z,73.82
2018-06-12T22:11:58.500Z,73.62
2018-06-12T22:14:29.336Z,73.65
2018-06-12T22:16:58.320Z,73.20
2018-06-12T22:19:26.827Z,73.69
2018-06-12T22:21:55.299Z,73.23
2018-06-12T22:24:25.185Z,72.85
2018-06-12T22:26:53.647Z,73.61
2018-06-12T22:29:22.074Z,72.71
2018-06-12T22:31:50.499Z,72.55
2018-06-12T22:34:19.104Z,73.84
2018-06-12T22:36:47.568Z,73.75
2018-06-12T22:39:16.020Z,73.64
2018-06-12T22:41:44.431Z,74.17
2018-06-12T22:44:12.911Z,74.43
2018-06-12T22:46:41.373Z,74.08
2018-06-12T22:49:09.807Z,72.86
2018-06-12T22:51:38.358Z,72.81
2018-06-12T22:54:06.767Z,73.87
2018-06-12T22:56:35.219Z,73.83
2018-06-12T22:59:03.659Z,74.33
2018-06-12T23:01:32.079Z,72.91
2018-06-12T23:04:00.639Z,73.70
2018-06-12T23:06:29.047Z,73.87
2018-06-12T23:08:57.463Z,74.37
2018-06-12T23:11:25.948Z,73.84
2018-06-12T23:13:54.375Z,74.17
2018-06-12T23:16:22.956Z,74.90
2018-06-12T23:18:51.427Z,74.30
2018-06-12T23:21:46.198Z,74.26
2018-06-12T23:24:14.632Z,74.12
2018-06-12T23:26:43.074Z,74.06
2018-06-12T23:29:11.508Z,74.24
2018-06-12T23:31:39.919Z,73.89
2018-06-12T23:34:08.532Z,73.37
2018-06-12T23:36:36.950Z,74.43
2018-06-12T23:39:07.130Z,75.19
2018-06-12T23:41:35.575Z,75.39
2018-06-12T23:44:04.119Z,75.64
2018-06-12T23:46:32.686Z,75.31
2018-06-12T23:49:01.082Z,73.52
2018-06-12T23:51:29.503Z,73.27
2018-06-12T23:53:57.937Z,73.76
2018-06-12T23:56:26.347Z,74.26
2018-06-12T23:58:55.099Z,74.68
